createdAt,value
2019-03-12T00:01:58.435Z,3.83
2019-03-12T00:06:53.290Z,7.47
2019-03-12T00:11:48.259Z,3.00
2019-03-12T00:16:43.179Z,2.97
2019-03-12T00:21:38.088Z,2.20
2019-03-12T00:26:33.335Z,2.30
2019-03-12T00:31:28.213Z,4.77
2019-03-12T00:36:23.399Z,4.67
2019-03-12T00:41:20.161Z,4.23
2019-03-12T00:46:15.535Z,5.77
2019-03-12T00:51:10.517Z,4.07
2019-03-12T00:56:05.736Z,2.87
2019-03-12T01:01:00.747Z,3.60
2019-03-12T01:05:55.745Z,4.40
2019-03-12T01:10:50.883Z,5.07
2019-03-12T01:15:45.927Z,4.40
2019-03-12T01:20:41.224Z,6.67
2019-03-12T01:25:36.569Z,5.40
2019-03-12T01:30:32.563Z,3.30
2019-03-12T01:35:27.368Z,2.80
2019-03-12T01:40:22.264Z,2.47
2019-03-12T01:45:17.576Z,3.67
2019-03-12T01:50:13.319Z,3.03
2019-03-12T01:55:09.406Z,2.50
2019-03-12T02:00:05.153Z,3.30
2019-03-12T02:05:00.011Z,4.10
2019-03-12T02:09:55.476Z,4.27
2019-03-12T03:55:34.440Z,7.77
2019-03-12T04:00:30.709Z,9.50
2019-03-12T04:05:25.932Z,12.20
2019-03-12T04:10:21.216Z,9.53
2019-03-12T04:15:16.248Z,9.23
2019-03-12T04:20:11.196Z,9.60
2019-03-12T04:25:06.091Z,12.13
2019-03-12T04:30:00.990Z,11.90
2019-03-12T04:34:55.856Z,9.27
2019-03-12T04:39:50.758Z,11.30
2019-03-12T04:44:45.718Z,9.80
2019-03-12T04:49:40.937Z,10.50
2019-03-12T04:54:37.841Z,13.50
2019-03-12T04:59:32.664Z,9.00
2019-03-12T05:04:27.538Z,6.37
2019-03-12T05:09:22.614Z,9.83
2019-03-12T05:14:34.536Z,8.23
2019-03-12T05:19:29.658Z,13.07
2019-03-12T05:24:24.495Z,18.33
2019-03-12T05:29:19.402Z,9.73
2019-03-12T05:34:14.327Z,9.83
2019-03-12T05:39:09.506Z,9.77
2019-03-12T05:44:05.429Z,23.00
2019-03-12T05:49:00.420Z,9.53
2019-03-12T05:53:55.382Z,15.07
2019-03-12T05:58:50.656Z,8.03
2019-03-12T06:03:46.523Z,12.63
2019-03-12T06:08:41.691Z,15.87
2019-03-12T06:13:36.564Z,13.97
2019-03-12T06:18:31.417Z,11.47
2019-03-12T06:23:26.660Z,15.10
2019-03-12T06:28:21.885Z,10.20
2019-03-12T06:33:24.323Z,11.50
2019-03-12T06:38:52.372Z,9.90
2019-03-12T06:44:03.385Z,12.07
2019-03-12T06:49:11.776Z,10.60
2019-03-12T06:54:15.951Z,10.60
2019-03-12T06:59:27.287Z,13.70
2019-03-12T07:04:44.841Z,9.70
2019-03-12T07:09:51.214Z,13.23
2019-03-12T07:15:05.075Z,13.73
2019-03-12T07:20:25.047Z,10.70
2019-03-12T07:25:32.735Z,5.47
2019-03-12T07:30:46.369Z,7.37
2019-03-12T07:35:55.268Z,8.53
2019-03-12T07:41:22.926Z,6.83
2019-03-12T07:46:13.734Z,6.97
2019-03-12T07:51:28.788Z,6.63
2019-03-12T07:56:30.088Z,16.77
2019-03-12T08:01:32.242Z,8.30
2019-03-12T08:07:13.162Z,8.03
2019-03-12T08:12:14.683Z,9.50
2019-03-12T08:17:16.968Z,7.03
2019-03-12T08:22:49.305Z,10.37
2019-03-12T08:27:52.581Z,8.10
2019-03-12T08:33:04.464Z,10.13
2019-03-12T08:38:10.668Z,9.53
2019-03-12T08:43:10.866Z,10.40
2019-03-12T08:48:24.124Z,8.00
2019-03-12T08:53:36.247Z,11.00
2019-03-12T08:58:40.778Z,9.43
2019-03-12T09:03:48.919Z,13.40
2019-03-12T09:09:03.185Z,12.00
2019-03-12T09:14:16.412Z,9.90
2019-03-12T09:19:27.407Z,10.17
2019-03-12T09:24:41.244Z,14.27
2019-03-12T09:30:04.095Z,11.90
2019-03-12T09:35:18.108Z,10.17
2019-03-12T09:40:26.614Z,13.73
2019-03-12T09:45:36.431Z,12.47
2019-03-12T09:50:42.622Z,13.93
2019-03-12T09:55:47.292Z,12.33
2019-03-12T10:00:54.834Z,10.10
2019-03-12T10:06:11.521Z,11.30
2019-03-12T10:11:17.939Z,9.30
2019-03-12T10:16:23.316Z,11.47
2019-03-12T10:21:37.220Z,7.90
2019-03-12T10:26:41.699Z,9.00
2019-03-12T10:32:05.032Z,9.77
2019-03-12T10:37:21.968Z,5.37
2019-03-12T10:42:29.201Z,10.10
2019-03-12T10:47:24.700Z,8.33
2019-03-12T10:52:19.569Z,9.40
2019-03-12T10:57:21.738Z,12.93
2019-03-12T11:02:16.695Z,6.93
2019-03-12T11:07:16.327Z,7.60
2019-03-12T11:12:08.279Z,10.43
2019-03-12T11:17:03.273Z,6.47
2019-03-12T11:21:58.258Z,9.70
2019-03-12T11:26:53.657Z,9.10
2019-03-12T11:31:48.596Z,11.23
2019-03-12T11:36:43.964Z,9.87
2019-03-12T11:41:39.003Z,8.77
2019-03-12T11:46:42.943Z,7.03
2019-03-12T11:51:30.561Z,7.73
2019-03-12T11:56:25.467Z,5.90
2019-03-12T12:01:20.368Z,6.43
2019-03-12T12:06:15.800Z,8.73
2019-03-12T12:11:11.198Z,4.63
2019-03-12T12:16:06.138Z,7.33
2019-03-12T12:21:01.424Z,6.47
2019-03-12T12:25:56.476Z,10.47
2019-03-12T12:30:51.379Z,5.77
2019-03-12T12:35:46.278Z,9.73
2019-03-12T12:40:41.265Z,6.10
2019-03-12T12:45:36.279Z,7.73
2019-03-12T12:50:31.417Z,7.17
2019-03-12T12:55:26.447Z,6.70
2019-03-12T13:00:21.490Z,6.67
2019-03-12T13:05:16.620Z,5.67
2019-03-12T13:10:14.093Z,7.73
2019-03-12T13:15:09.234Z,6.33
2019-03-12T13:20:04.409Z,4.17
2019-03-12T13:25:02.163Z,10.07
2019-03-12T13:29:56.888Z,6.87
2019-03-12T13:34:51.642Z,9.03
2019-03-12T13:39:46.377Z,5.17
2019-03-12T13:44:41.350Z,10.67
2019-03-12T13:49:36.235Z,5.50
2019-03-12T13:54:31.194Z,9.83
2019-03-12T13:59:27.618Z,8.03
2019-03-12T14:04:22.544Z,6.47
2019-03-12T14:09:17.282Z,4.80
2019-03-12T14:14:12.015Z,7.73
2019-03-12T14:19:07.897Z,9.57
2019-03-12T14:24:03.326Z,5.33
2019-03-12T14:28:58.077Z,5.03
2019-03-12T14:33:53.974Z,7.80
2019-03-12T14:38:48.773Z,5.03
2019-03-12T14:43:43.537Z,6.87
2019-03-12T14:48:51.888Z,6.80
2019-03-12T14:53:47.497Z,5.80
2019-03-12T14:58:42.219Z,4.40
2019-03-12T15:03:37.075Z,3.03
2019-03-12T15:08:32.216Z,5.20
2019-03-12T15:13:33.887Z,5.00
2019-03-12T15:18:28.603Z,5.00
2019-03-12T15:23:23.311Z,5.43
2019-03-12T15:28:18.060Z,5.60
2019-03-12T15:33:12.971Z,5.37
2019-03-12T15:38:07.714Z,5.33
2019-03-12T15:43:02.435Z,6.77
2019-03-12T15:47:58.159Z,6.73
2019-03-12T15:52:53.169Z,7.53
2019-03-12T15:57:47.885Z,5.33
2019-03-12T16:02:42.600Z,7.00
2019-03-12T16:07:37.310Z,5.63
2019-03-12T16:12:34.049Z,6.23
2019-03-12T16:17:29.924Z,4.73
2019-03-12T16:22:24.816Z,5.00
2019-03-12T16:27:19.543Z,3.53
2019-03-12T16:32:14.255Z,8.10
2019-03-12T16:37:09.278Z,5.03
2019-03-12T16:42:04.106Z,3.10
2019-03-12T16:46:58.820Z,4.87
2019-03-12T16:51:53.823Z,3.73
2019-03-12T16:56:48.614Z,5.93
2019-03-12T17:01:43.324Z,7.07
2019-03-12T17:06:38.099Z,2.43
2019-03-12T17:11:33.638Z,4.63
2019-03-12T17:16:28.434Z,4.30
2019-03-12T17:21:23.139Z,4.80
2019-03-12T17:26:18.015Z,4.23
2019-03-12T17:31:12.735Z,2.40
2019-03-12T17:36:07.454Z,6.23
2019-03-12T17:41:02.198Z,2.63
2019-03-12T17:45:56.923Z,4.50
2019-03-12T17:50:53.926Z,6.57
2019-03-12T17:55:49.796Z,5.03
2019-03-12T18:00:44.988Z,2.23
2019-03-12T18:05:39.735Z,1.80
2019-03-12T18:10:34.524Z,2.70
2019-03-12T18:15:30.309Z,4.37
2019-03-12T18:20:25.108Z,2.40
2019-03-12T18:25:22.262Z,3.30
2019-03-12T18:30:17.303Z,4.40
2019-03-12T18:35:16.041Z,3.60
2019-03-12T18:40:28.812Z,3.73
2019-03-12T18:45:42.825Z,2.50
2019-03-12T18:50:37.572Z,5.17
2019-03-12T18:55:46.812Z,1.30
2019-03-12T19:00:42.023Z,2.27
2019-03-12T19:05:36.922Z,3.00
2019-03-12T19:10:31.637Z,1.47
2019-03-12T19:15:26.694Z,2.10
2019-03-12T19:20:21.822Z,4.83
2019-03-12T19:25:19.748Z,2.80
2019-03-12T19:30:14.800Z,2.93
2019-03-12T19:35:11.848Z,2.77
2019-03-12T19:40:09.435Z,1.77
2019-03-12T19:45:04.551Z,1.50
2019-03-12T19:50:00.389Z,3.13
2019-03-12T19:54:55.965Z,3.27
2019-03-12T19:59:51.057Z,2.20
2019-03-12T20:04:51.582Z,2.20
2019-03-12T20:10:09.423Z,1.50
2019-03-12T20:15:55.773Z,1.87
2019-03-12T20:21:17.343Z,1.37
2019-03-12T20:26:40.471Z,3.20
2019-03-12T20:32:08.493Z,3.03
2019-03-12T20:37:48.568Z,1.77
2019-03-12T20:43:19.711Z,2.97
2019-03-12T20:48:39.702Z,3.33
2019-03-12T20:54:10.947Z,3.50
2019-03-12T20:59:41.860Z,2.17
2019-03-12T21:05:09.578Z,3.27
2019-03-12T21:10:38.433Z,2.60
2019-03-12T21:16:15.032Z,3.53
2019-03-12T21:21:34.477Z,1.87
2019-03-12T21:27:02.241Z,1.67
2019-03-12T21:31:57.620Z,2.10
2019-03-12T21:36:53.338Z,2.17
2019-03-12T21:41:48.083Z,2.00
2019-03-12T21:46:42.929Z,3.03
2019-03-12T21:51:37.654Z,1.60
2019-03-12T21:56:32.449Z,1.50
2019-03-12T22:01:28.290Z,2.90
2019-03-12T22:06:23.058Z,4.17
2019-03-12T22:11:17.793Z,3.07
2019-03-12T22:16:12.761Z,5.63
2019-03-12T22:21:07.473Z,2.50
2019-03-12T22:26:05.325Z,1.83
2019-03-12T22:31:00.043Z,1.57
2019-03-12T22:35:54.766Z,2.53
2019-03-12T22:40:49.683Z,2.33
2019-03-12T22:45:44.492Z,1.57
2019-03-12T22:50:39.307Z,3.47
2019-03-12T22:55:34.024Z,2.27
2019-03-12T23:00:31.763Z,1.80
2019-03-12T23:05:28.500Z,1.37
2019-03-12T23:10:23.252Z,2.17
2019-03-12T23:15:18.037Z,3.57
2019-03-12T23:20:18.771Z,1.87
2019-03-12T23:25:13.556Z,3.37
2019-03-12T23:30:10.556Z,2.13
2019-03-12T23:35:05.843Z,1.70
2019-03-12T23:40:00.577Z,3.40
2019-03-12T23:44:55.307Z,1.77
2019-03-12T23:49:50.293Z,1.97
2019-03-12T23:54:45.018Z,3.03
2019-03-12T23:59:40.288Z,2.60
